createdAt,value
2022-11-02T00:00:45.814Z,31.77
2022-11-02T00:03:12.429Z,18.05
2022-11-02T00:05:39.066Z,12.43
2022-11-02T00:08:05.695Z,24.65
2022-11-02T00:10:32.295Z,15.85
2022-11-02T00:12:59.225Z,13.20
2022-11-02T00:15:30.134Z,14.85
2022-11-02T00:20:31.598Z,25.05
2022-11-02T00:23:00.406Z,28.73
2022-11-02T00:25:28.186Z,29.10
2022-11-02T00:27:54.961Z,32.00
2022-11-02T00:30:21.791Z,38.88
2022-11-02T00:32:48.397Z,38.08
2022-11-02T00:35:15.277Z,49.17
2022-11-02T00:37:41.852Z,37.22
2022-11-02T00:40:08.978Z,27.65
2022-11-02T00:42:35.572Z,25.58
2022-11-02T00:45:02.355Z,20.58
2022-11-02T00:47:29.023Z,25.55
2022-11-02T00:49:55.942Z,25.38
2022-11-02T00:52:22.538Z,22.48
2022-11-02T00:54:51.808Z,21.55
2022-11-02T00:57:18.646Z,15.43
2022-11-02T00:59:45.599Z,13.95
2022-11-02T01:02:12.387Z,14.20
2022-11-02T01:04:39.124Z,10.15
2022-11-02T01:07:05.931Z,11.55
2022-11-02T01:09:33.254Z,14.07
2022-11-02T01:11:59.968Z,12.05
2022-11-02T01:14:26.944Z,11.95
2022-11-02T01:16:53.511Z,16.10
2022-11-02T01:19:20.132Z,10.23
2022-11-02T01:21:46.782Z,17.10
2022-11-02T01:24:13.375Z,15.75
2022-11-02T01:26:39.988Z,11.90
2022-11-02T01:29:06.576Z,18.23
2022-11-02T01:31:33.228Z,14.10
2022-11-02T01:34:02.480Z,17.55
2022-11-02T01:36:29.078Z,14.13
2022-11-02T01:38:55.864Z,16.65
2022-11-02T01:41:22.947Z,15.20
2022-11-02T01:43:53.888Z,16.25
2022-11-02T01:46:23.883Z,17.48
2022-11-02T01:49:08.428Z,14.02
2022-11-02T01:51:55.148Z,14.30
2022-11-02T01:54:26.032Z,13.68
2022-11-02T01:57:00.492Z,12.65
2022-11-02T01:59:38.411Z,14.82
2022-11-02T02:02:09.153Z,15.57
2022-11-02T02:04:37.503Z,12.95
2022-11-02T02:07:04.584Z,15.40
2022-11-02T02:09:31.635Z,15.07
2022-11-02T02:11:58.273Z,21.65
2022-11-02T02:14:24.878Z,14.52
2022-11-02T02:17:06.498Z,17.60
2022-11-02T02:19:55.817Z,20.63
2022-11-02T02:22:55.580Z,15.80
2022-11-02T02:25:32.464Z,15.63
2022-11-02T02:28:21.598Z,19.53
2022-11-02T02:31:17.566Z,13.77
2022-11-02T02:34:09.427Z,17.85
2022-11-02T02:37:08.034Z,19.58
2022-11-02T02:39:51.542Z,16.75
2022-11-02T02:42:23.036Z,11.57
2022-11-02T02:45:11.932Z,18.88
2022-11-02T02:47:46.958Z,15.50
2022-11-02T02:50:21.142Z,17.65
2022-11-02T02:52:50.607Z,17.08
2022-11-02T02:55:27.535Z,13.55
2022-11-02T02:57:56.099Z,19.30
2022-11-02T03:00:23.216Z,14.52
2022-11-02T03:03:01.193Z,16.10
2022-11-02T03:05:33.976Z,16.75
2022-11-02T03:08:14.964Z,14.50
2022-11-02T03:11:01.511Z,13.18
2022-11-02T03:14:01.904Z,18.00
2022-11-02T03:16:41.373Z,19.15
2022-11-02T03:19:18.588Z,18.67
2022-11-02T03:21:48.521Z,14.32
2022-11-02T03:24:47.214Z,17.73
2022-11-02T03:27:32.897Z,10.95
2022-11-02T03:30:05.812Z,16.63
2022-11-02T03:32:46.232Z,16.42
2022-11-02T03:35:41.102Z,18.58
2022-11-02T03:38:23.940Z,17.35
2022-11-02T03:40:55.326Z,13.90
2022-11-02T03:43:24.838Z,17.60
2022-11-02T03:45:56.710Z,14.48
2022-11-02T03:48:29.119Z,16.20
2022-11-02T03:51:00.182Z,20.17
2022-11-02T03:53:34.536Z,13.35
2022-11-02T03:56:08.112Z,13.63
2022-11-02T03:58:37.592Z,18.83
2022-11-02T04:01:08.259Z,16.30
2022-11-02T04:03:42.683Z,12.13
2022-11-02T04:06:09.348Z,13.20
2022-11-02T04:08:39.613Z,14.10
2022-11-02T04:11:28.272Z,13.95
2022-11-02T04:14:18.382Z,18.63
2022-11-02T04:16:45.921Z,11.85
2022-11-02T04:19:28.302Z,14.25
2022-11-02T04:22:19.505Z,11.73
2022-11-02T04:25:08.543Z,18.38
2022-11-02T04:27:35.991Z,18.73
2022-11-02T04:30:04.340Z,17.42
2022-11-02T04:33:05.633Z,18.23
2022-11-02T04:35:38.895Z,17.42
2022-11-02T04:38:24.371Z,13.55
2022-11-02T04:41:11.004Z,16.40
2022-11-02T04:43:37.702Z,11.15
2022-11-02T04:46:04.642Z,15.82
2022-11-02T04:48:32.606Z,13.95
2022-11-02T04:50:59.264Z,13.82
2022-11-02T04:53:25.895Z,16.25
2022-11-02T04:55:52.968Z,20.27
2022-11-02T04:58:19.589Z,16.35
2022-11-02T05:00:46.159Z,16.00
2022-11-02T05:03:13.067Z,17.90
2022-11-02T05:05:41.267Z,15.27
2022-11-02T05:08:08.164Z,15.40
2022-11-02T05:10:35.894Z,15.77
2022-11-02T05:13:02.614Z,17.13
2022-11-02T05:15:33.020Z,18.02
2022-11-02T05:18:00.630Z,12.18
2022-11-02T05:20:29.852Z,13.57
2022-11-02T05:22:57.393Z,21.17
2022-11-02T05:25:24.713Z,14.13
2022-11-02T05:27:51.824Z,14.25
2022-11-02T05:30:19.460Z,17.45
2022-11-02T05:32:46.111Z,15.88
2022-11-02T05:35:13.528Z,22.27
2022-11-02T05:37:40.248Z,16.15
2022-11-02T05:40:08.725Z,14.18
2022-11-02T05:42:35.987Z,18.02
2022-11-02T05:45:02.711Z,15.23
2022-11-02T05:47:29.337Z,12.23
2022-11-02T05:49:55.928Z,15.77
2022-11-02T05:52:23.008Z,13.75
2022-11-02T05:54:49.616Z,18.00
2022-11-02T05:57:17.125Z,17.70
2022-11-02T05:59:46.681Z,12.88
2022-11-02T06:02:16.117Z,16.35
2022-11-02T06:04:42.732Z,14.90
2022-11-02T06:07:09.320Z,16.58
2022-11-02T06:09:35.963Z,13.15
2022-11-02T06:12:02.548Z,18.88
2022-11-02T06:14:29.143Z,12.95
2022-11-02T06:16:55.700Z,13.88
2022-11-02T06:19:22.293Z,20.40
2022-11-02T06:21:48.852Z,14.32
2022-11-02T06:24:15.471Z,14.48
2022-11-02T06:26:42.329Z,15.80
2022-11-02T06:29:08.953Z,11.65
2022-11-02T06:31:35.542Z,11.65
2022-11-02T06:34:02.320Z,17.80
2022-11-02T06:36:28.908Z,15.82
2022-11-02T06:38:55.540Z,14.73
2022-11-02T06:41:22.177Z,14.80
2022-11-02T06:43:48.758Z,12.20
2022-11-02T06:46:15.409Z,20.92
2022-11-02T06:48:42.015Z,15.73
2022-11-02T06:51:08.647Z,12.80
2022-11-02T06:53:35.329Z,13.82
2022-11-02T06:56:01.962Z,13.40
2022-11-02T06:58:29.019Z,13.80
2022-11-02T07:01:01.044Z,13.38
2022-11-02T07:03:28.855Z,11.50
2022-11-02T07:05:55.639Z,18.90
2022-11-02T07:08:23.044Z,13.48
2022-11-02T07:10:49.978Z,15.68
2022-11-02T07:13:16.942Z,12.60
2022-11-02T07:15:43.648Z,15.25
2022-11-02T07:18:10.369Z,16.67
2022-11-02T07:20:37.187Z,16.40
2022-11-02T07:23:05.322Z,11.15
2022-11-02T07:25:33.385Z,15.73
2022-11-02T07:28:01.528Z,15.85
2022-11-02T07:30:32.956Z,15.52
2022-11-02T07:32:59.607Z,13.98
2022-11-02T07:35:26.716Z,16.02
2022-11-02T07:38:05.077Z,15.70
2022-11-02T07:40:34.041Z,18.52
2022-11-02T07:43:01.505Z,14.85
2022-11-02T07:45:38.322Z,11.50
2022-11-02T07:48:04.944Z,15.00
2022-11-02T07:50:31.571Z,12.43
2022-11-02T07:52:58.678Z,19.33
2022-11-02T07:55:30.638Z,13.45
2022-11-02T07:58:03.215Z,14.88
2022-11-02T08:00:33.488Z,12.57
2022-11-02T08:03:01.979Z,13.63
2022-11-02T08:05:35.135Z,19.42
2022-11-02T08:08:07.442Z,11.85
2022-11-02T08:10:37.427Z,11.55
2022-11-02T08:13:07.958Z,12.60
2022-11-02T08:15:34.751Z,13.80
2022-11-02T08:18:15.782Z,13.95
2022-11-02T08:21:01.514Z,15.13
2022-11-02T08:23:33.749Z,14.55
2022-11-02T08:26:00.484Z,13.02
2022-11-02T08:28:31.929Z,15.13
2022-11-02T08:31:33.894Z,15.43
2022-11-02T08:34:23.268Z,18.58
2022-11-02T08:36:52.953Z,12.88
2022-11-02T08:39:22.455Z,13.45
2022-11-02T08:41:49.108Z,16.83
2022-11-02T08:44:15.744Z,19.00
2022-11-02T08:46:42.542Z,15.52
2022-11-02T08:49:09.309Z,17.98
2022-11-02T08:51:35.846Z,14.43
2022-11-02T08:54:02.495Z,19.60
2022-11-02T08:56:29.144Z,14.48
2022-11-02T08:58:55.756Z,15.43
2022-11-02T09:01:22.509Z,11.88
2022-11-02T09:03:49.191Z,15.68
2022-11-02T09:06:15.827Z,16.42
2022-11-02T09:08:42.540Z,9.68
2022-11-02T09:11:09.236Z,15.20
2022-11-02T09:13:37.365Z,10.73
2022-11-02T09:16:04.321Z,16.98
2022-11-02T09:18:31.560Z,15.77
2022-11-02T09:21:02.292Z,13.02
2022-11-02T09:23:28.869Z,11.02
2022-11-02T09:25:55.504Z,17.33
2022-11-02T09:28:22.121Z,14.10
2022-11-02T09:30:49.019Z,13.70
2022-11-02T09:33:15.856Z,10.63
2022-11-02T09:35:45.500Z,11.90
2022-11-02T09:38:12.559Z,16.55
2022-11-02T09:40:40.648Z,19.83
2022-11-02T09:43:33.667Z,15.73
2022-11-02T09:46:06.644Z,11.82
2022-11-02T09:48:38.983Z,14.38
2022-11-02T09:51:10.520Z,10.57
2022-11-02T09:53:50.902Z,10.55
2022-11-02T09:56:19.885Z,11.02
2022-11-02T09:58:53.484Z,11.48
2022-11-02T10:01:25.812Z,17.48
2022-11-02T10:04:18.520Z,9.20
2022-11-02T10:06:54.503Z,11.95
2022-11-02T10:09:54.955Z,14.03
2022-11-02T10:12:49.344Z,12.73
2022-11-02T10:15:20.751Z,15.38
2022-11-02T10:17:53.634Z,12.90
2022-11-02T10:20:44.220Z,15.23
2022-11-02T10:23:33.500Z,17.45
2022-11-02T10:26:02.206Z,11.65
2022-11-02T10:28:39.655Z,14.15
2022-11-02T10:31:30.250Z,14.65
2022-11-02T10:34:09.435Z,17.45
2022-11-02T10:36:58.066Z,12.98
2022-11-02T10:39:44.982Z,11.32
2022-11-02T10:42:20.726Z,11.90
2022-11-02T10:44:55.162Z,10.75
2022-11-02T10:48:05.558Z,10.60
2022-11-02T10:50:44.028Z,15.30
2022-11-02T10:53:39.355Z,10.23
2022-11-02T10:56:10.030Z,9.70
2022-11-02T10:58:41.954Z,15.85
2022-11-02T11:01:11.604Z,12.98
2022-11-02T11:04:02.611Z,11.18
2022-11-02T11:06:34.215Z,15.38
2022-11-02T11:09:05.390Z,13.85
2022-11-02T11:11:36.049Z,13.52
2022-11-02T11:22:26.062Z,16.80
2022-11-02T11:24:52.944Z,10.73
2022-11-02T11:27:21.456Z,11.82
2022-11-02T11:29:59.072Z,12.02
2022-11-02T11:32:30.459Z,9.65
2022-11-02T11:35:07.371Z,10.15
2022-11-02T11:37:34.237Z,7.20
2022-11-02T11:40:05.924Z,12.00
2022-11-02T11:42:36.116Z,13.48
2022-11-02T11:45:26.690Z,9.73
2022-11-02T11:47:55.961Z,10.45
2022-11-02T11:50:28.909Z,11.38
2022-11-02T11:53:12.985Z,10.52
2022-11-02T11:55:51.365Z,13.02
2022-11-02T11:58:25.384Z,9.00
2022-11-02T12:01:16.366Z,10.45
2022-11-02T12:03:55.500Z,7.28
2022-11-02T12:06:56.092Z,10.32
2022-11-02T12:09:37.110Z,8.15
2022-11-02T12:12:30.581Z,12.93
2022-11-02T12:15:29.551Z,10.48
2022-11-02T12:18:14.240Z,19.65
2022-11-02T12:20:51.297Z,9.48
2022-11-02T12:23:44.005Z,10.35
2022-11-02T12:26:49.053Z,17.38
2022-11-02T12:29:43.215Z,9.63
2022-11-02T12:32:23.758Z,10.65
2022-11-02T12:35:28.793Z,10.05
2022-11-02T12:38:17.392Z,9.45
2022-11-02T12:40:53.024Z,10.20
2022-11-02T12:43:40.045Z,10.88
2022-11-02T12:46:16.955Z,10.18
2022-11-02T12:49:11.831Z,10.00
2022-11-02T12:51:45.792Z,10.23
2022-11-02T12:54:20.235Z,10.05
2022-11-02T12:56:50.448Z,14.65
2022-11-02T12:59:23.486Z,10.25
2022-11-02T13:01:54.740Z,9.75
2022-11-02T13:04:29.580Z,11.70
2022-11-02T13:07:03.189Z,11.63
2022-11-02T13:09:39.840Z,12.60
2022-11-02T13:12:13.360Z,11.38
2022-11-02T13:14:45.110Z,14.93
2022-11-02T13:17:18.013Z,13.27
2022-11-02T13:20:34.095Z,10.20
2022-11-02T13:23:26.239Z,9.70
2022-11-02T13:25:58.331Z,15.10
2022-11-02T13:28:41.373Z,9.60
2022-11-02T13:31:15.064Z,10.60
2022-11-02T13:33:46.709Z,9.93
2022-11-02T13:36:14.751Z,11.15
2022-11-02T13:38:52.945Z,10.27
2022-11-02T13:41:47.722Z,9.88
2022-11-02T13:44:54.892Z,12.85
2022-11-02T13:47:57.883Z,11.45
2022-11-02T13:50:27.212Z,12.55
2022-11-02T13:53:05.045Z,15.55
2022-11-02T13:55:46.318Z,14.23
2022-11-02T13:58:26.081Z,8.95
2022-11-02T14:00:55.146Z,14.82
2022-11-02T14:03:31.650Z,10.07
2022-11-02T14:06:09.196Z,10.32
2022-11-02T14:08:50.371Z,11.98
2022-11-02T14:11:16.938Z,9.27
2022-11-02T14:13:56.153Z,9.05
2022-11-02T14:16:46.261Z,10.70
2022-11-02T14:19:19.487Z,8.90
2022-11-02T14:22:11.838Z,13.63
2022-11-02T14:24:38.736Z,13.35
2022-11-02T14:27:16.447Z,14.23
2022-11-02T14:29:46.114Z,12.23
2022-11-02T14:32:19.864Z,10.85
2022-11-02T14:34:53.973Z,9.80
2022-11-02T14:37:46.576Z,11.35
2022-11-02T14:40:41.874Z,10.02
2022-11-02T14:43:11.292Z,17.02
2022-11-02T14:46:09.382Z,10.98
2022-11-02T14:48:46.603Z,9.68
2022-11-02T14:51:25.950Z,11.07
2022-11-02T14:54:03.106Z,16.23
2022-11-02T14:56:50.968Z,13.50
2022-11-02T14:59:35.470Z,10.82
2022-11-02T15:02:18.907Z,11.60
2022-11-02T15:04:51.966Z,13.48
2022-11-02T15:07:22.477Z,10.25
2022-11-02T15:10:01.156Z,11.57
2022-11-02T15:12:39.476Z,12.15
2022-11-02T15:15:30.287Z,12.88
2022-11-02T15:17:56.855Z,12.70
2022-11-02T15:20:34.501Z,11.27
2022-11-02T15:23:16.290Z,12.60
2022-11-02T15:25:51.785Z,9.88
2022-11-02T15:28:24.679Z,12.90
2022-11-02T15:30:54.601Z,15.35
2022-11-02T15:33:37.784Z,16.25
2022-11-02T15:36:07.476Z,12.18
2022-11-02T15:38:39.619Z,13.27
2022-11-02T15:41:33.771Z,11.75
2022-11-02T15:44:27.145Z,15.65
2022-11-02T15:47:26.142Z,9.07
2022-11-02T15:50:12.857Z,9.93
2022-11-02T15:56:05.204Z,11.10
2022-11-02T15:58:44.997Z,9.68
2022-11-02T16:01:22.465Z,10.27
2022-11-02T16:03:58.206Z,14.85
2022-11-02T16:06:45.852Z,11.17
2022-11-02T16:09:32.884Z,12.18
2022-11-02T16:12:21.193Z,13.15
2022-11-02T16:14:58.302Z,15.23
2022-11-02T16:17:30.105Z,11.35
2022-11-02T16:20:19.327Z,15.07
2022-11-02T16:22:59.019Z,10.10
2022-11-02T16:25:36.895Z,13.43
2022-11-02T16:28:12.618Z,18.65
2022-11-02T16:30:39.548Z,14.95
2022-11-02T16:33:07.252Z,13.77
2022-11-02T16:35:34.272Z,18.48
2022-11-02T16:38:01.247Z,23.73
2022-11-02T16:40:28.288Z,21.13
2022-11-02T16:42:55.387Z,34.13
2022-11-02T16:45:43.292Z,26.85
2022-11-02T16:48:30.069Z,40.08
2022-11-02T16:51:11.955Z,29.65
2022-11-02T16:53:40.866Z,28.77
2022-11-02T16:56:27.861Z,43.47
2022-11-02T16:59:05.991Z,25.88
2022-11-02T17:01:38.757Z,37.65
2022-11-02T17:04:22.110Z,31.02
2022-11-02T17:06:51.526Z,28.75
2022-11-02T17:09:31.013Z,22.67
2022-11-02T17:12:01.297Z,29.23
2022-11-02T17:14:28.927Z,36.20
2022-11-02T17:17:05.584Z,31.63
2022-11-02T17:19:38.208Z,37.10
2022-11-02T17:22:11.871Z,18.75
2022-11-02T17:24:38.949Z,12.13
2022-11-02T17:27:26.775Z,14.23
2022-11-02T17:29:54.803Z,18.52
2022-11-02T17:32:22.090Z,17.33
2022-11-02T17:34:50.684Z,17.52
2022-11-02T17:37:25.811Z,19.00
2022-11-02T17:39:53.542Z,15.80
2022-11-02T17:42:39.320Z,17.55
2022-11-02T17:45:21.010Z,19.42
2022-11-02T17:47:47.645Z,16.88
2022-11-02T17:50:14.367Z,17.67
2022-11-02T17:52:41.071Z,23.45
2022-11-02T17:55:14.464Z,19.13
2022-11-02T17:57:41.049Z,16.52
2022-11-02T18:00:08.852Z,18.60
2022-11-02T18:02:39.504Z,31.60
2022-11-02T18:05:21.847Z,21.02
2022-11-02T18:07:48.923Z,21.45
2022-11-02T18:10:16.409Z,23.35
2022-11-02T18:12:43.638Z,23.10
2022-11-02T18:15:19.323Z,39.28
2022-11-02T18:17:46.326Z,38.80
2022-11-02T18:20:14.417Z,45.58
2022-11-02T18:22:41.681Z,43.60
2022-11-02T18:25:10.924Z,52.97
2022-11-02T18:27:38.614Z,77.90
2022-11-02T18:30:07.329Z,71.22
2022-11-02T18:32:38.717Z,62.20
2022-11-02T18:35:07.687Z,42.22
2022-11-02T18:37:34.607Z,35.42
2022-11-02T18:40:01.440Z,42.65
2022-11-02T18:42:28.049Z,46.75
2022-11-02T18:44:54.652Z,39.17
2022-11-02T18:47:21.311Z,25.42
2022-11-02T18:49:47.967Z,15.88
2022-11-02T18:52:19.744Z,20.08
2022-11-02T18:54:49.313Z,20.27
2022-11-02T18:57:15.963Z,23.20
2022-11-02T18:59:42.610Z,15.75
2022-11-02T19:02:10.569Z,18.77
2022-11-02T19:04:37.508Z,19.80
2022-11-02T19:07:23.290Z,14.30
2022-11-02T19:09:49.950Z,13.93
2022-11-02T19:12:37.976Z,15.23
2022-11-02T19:15:05.645Z,13.20
2022-11-02T19:17:32.380Z,13.60
2022-11-02T19:19:59.104Z,12.23
2022-11-02T19:22:26.673Z,18.98
2022-11-02T19:24:53.605Z,10.95
2022-11-02T19:27:22.781Z,17.33
2022-11-02T19:29:49.967Z,16.13
2022-11-02T19:32:17.412Z,14.93
2022-11-02T19:34:44.087Z,12.82
2022-11-02T19:37:11.399Z,15.55
2022-11-02T19:39:38.089Z,16.25
2022-11-02T19:42:07.157Z,15.05
2022-11-02T19:44:38.212Z,14.23
2022-11-02T19:47:08.918Z,20.38
2022-11-02T19:49:35.577Z,21.48
2022-11-02T19:52:02.279Z,17.10
2022-11-02T19:54:28.848Z,20.70
2022-11-02T19:56:55.481Z,18.65
2022-11-02T19:59:22.530Z,18.00
2022-11-02T20:01:50.553Z,25.75
2022-11-02T20:04:17.989Z,25.02
2022-11-02T20:06:45.277Z,22.30
2022-11-02T20:09:17.786Z,21.40
2022-11-02T20:11:45.529Z,19.50
2022-11-02T20:14:13.728Z,16.27
2022-11-02T20:16:40.809Z,18.80
2022-11-02T20:19:08.909Z,17.45
2022-11-02T20:21:41.555Z,13.90
2022-11-02T20:24:10.347Z,16.95
2022-11-02T20:26:38.716Z,15.15
2022-11-02T20:29:06.667Z,17.40
2022-11-02T20:31:35.672Z,12.20
2022-11-02T20:34:03.888Z,13.18
2022-11-02T20:36:30.903Z,14.70
2022-11-02T20:38:57.815Z,14.52
2022-11-02T20:41:26.003Z,15.23
2022-11-02T20:43:54.720Z,12.05
2022-11-02T20:46:39.092Z,12.65
2022-11-02T20:49:21.030Z,18.58
2022-11-02T20:51:54.384Z,14.15
2022-11-02T20:54:22.164Z,20.60
2022-11-02T20:56:50.018Z,17.70
2022-11-02T20:59:17.352Z,19.80
2022-11-02T21:01:44.576Z,16.63
2022-11-02T21:04:16.844Z,14.65
2022-11-02T21:06:47.208Z,12.57
2022-11-02T21:09:13.869Z,13.30
2022-11-02T21:11:59.297Z,9.73
2022-11-02T21:14:26.012Z,15.27
2022-11-02T21:16:52.684Z,15.55
2022-11-02T21:19:19.392Z,13.73
2022-11-02T21:21:45.983Z,12.07
2022-11-02T21:24:12.623Z,16.92
2022-11-02T21:26:39.236Z,11.18
2022-11-02T21:29:05.962Z,14.70
2022-11-02T21:31:32.637Z,14.10
2022-11-02T21:33:59.211Z,13.25
2022-11-02T21:36:25.905Z,18.42
2022-11-02T21:38:52.540Z,12.88
2022-11-02T21:41:26.537Z,14.60
2022-11-02T21:43:55.379Z,12.18
2022-11-02T21:46:22.515Z,12.80
2022-11-02T21:48:49.105Z,17.77
2022-11-02T21:51:19.015Z,13.90
2022-11-02T21:53:47.205Z,12.65
2022-11-02T21:56:16.898Z,13.73
2022-11-02T21:58:46.087Z,13.88
2022-11-02T22:01:34.952Z,11.20
2022-11-02T22:04:01.944Z,15.27
2022-11-02T22:06:31.586Z,13.90
2022-11-02T22:08:59.438Z,11.85
2022-11-02T22:11:29.896Z,15.75
2022-11-02T22:13:58.393Z,11.40
2022-11-02T22:16:31.737Z,13.13
2022-11-02T22:19:00.419Z,13.13
2022-11-02T22:21:29.178Z,11.30
2022-11-02T22:23:56.504Z,12.38
2022-11-02T22:26:25.141Z,11.30
2022-11-02T22:28:52.393Z,11.73
2022-11-02T22:31:25.044Z,14.07
2022-11-02T22:33:54.080Z,10.90
2022-11-02T22:36:23.226Z,17.58
2022-11-02T22:38:56.332Z,12.32
2022-11-02T22:41:35.396Z,17.15
2022-11-02T22:44:07.380Z,15.02
2022-11-02T22:46:36.391Z,13.90
2022-11-02T22:49:04.647Z,14.15
2022-11-02T22:51:35.665Z,12.60
2022-11-02T22:54:04.535Z,11.32
2022-11-02T22:56:31.881Z,10.00
2022-11-02T22:58:59.797Z,12.60
2022-11-02T23:01:28.744Z,16.27
2022-11-02T23:03:55.544Z,15.95
2022-11-02T23:06:23.295Z,12.05
2022-11-02T23:08:51.745Z,15.52
2022-11-02T23:11:21.465Z,10.75
2022-11-02T23:14:05.837Z,14.20
2022-11-02T23:16:38.170Z,11.65
2022-11-02T23:19:22.055Z,15.13
2022-11-02T23:22:28.028Z,10.65
2022-11-02T23:25:12.182Z,10.63
2022-11-02T23:28:14.674Z,13.25
2022-11-02T23:31:00.947Z,14.15
2022-11-02T23:33:32.921Z,11.23
2022-11-02T23:36:13.149Z,10.75
2022-11-02T23:39:03.201Z,14.23
2022-11-02T23:41:31.471Z,14.35
2022-11-02T23:44:17.038Z,16.10
2022-11-02T23:46:45.879Z,12.48
2022-11-02T23:49:13.505Z,10.30
2022-11-02T23:51:58.952Z,14.48
2022-11-02T23:54:44.478Z,14.27
2022-11-02T23:57:11.412Z,10.95
2022-11-02T23:59:38.009Z,13.13
